PAA1305 MMUN-KMSY
Flight info
| Callsign | PAA1305 |
|---|---|
| Flight time | 1h 31m |
| Altitude | 34000 |
| Route | ENEBA2A ENEBA UT27 OMVIP UT45 IRDOV L214 LEV DCT LSU AWDAD1 |
| Aircraft | B742/H-SDFHIRWXY/L |
Departure
| Time | 2026-04-30 20:49 |
|---|---|
| Airport | Cancún International Airport (MMUN) |
Arrival
| Time | 2026-04-30 22:20 |
|---|---|
| Airport | Louis Armstrong New Orleans International Airport (KMSY) |
| Time | Latitude | Longitude | Altitude | Speed | Heading |
|---|---|---|---|---|---|
| 2026-04-30 19:50 | 21.03926 | -86.87687 | 29 ft | 0 kts | 33° |
| 2026-04-30 19:51 | 21.03888 | -86.87635 | 29 ft | 0 kts | 359° |
| 2026-04-30 20:30 | 21.03887 | -86.87635 | 28 ft | 0 kts | 359° |
| 2026-04-30 20:39 | 21.03881 | -86.87634 | 28 ft | 2 kts | 359° |
| 2026-04-30 20:39 | 21.03866 | -86.87634 | 28 ft | 2 kts | 358° |
| 2026-04-30 20:40 | 21.03836 | -86.87633 | 28 ft | 2 kts | 359° |
| 2026-04-30 20:40 | 21.03820 | -86.87632 | 28 ft | 2 kts | 343° |
| 2026-04-30 20:40 | 21.03807 | -86.87625 | 28 ft | 2 kts | 319° |
| 2026-04-30 20:41 | 21.03790 | -86.87598 | 28 ft | 2 kts | 303° |
| 2026-04-30 20:41 | 21.03785 | -86.87591 | 29 ft | 0 kts | 304° |
| 2026-04-30 20:43 | 21.03787 | -86.87595 | 28 ft | 3 kts | 304° |
| 2026-04-30 20:43 | 21.03821 | -86.87650 | 28 ft | 14 kts | 303° |
| 2026-04-30 20:44 | 21.03941 | -86.87843 | 28 ft | 14 kts | 303° |
| 2026-04-30 20:44 | 21.03996 | -86.87932 | 29 ft | 13 kts | 304° |
| 2026-04-30 20:44 | 21.04128 | -86.88141 | 32 ft | 20 kts | 303° |
| 2026-04-30 20:45 | 21.04278 | -86.88381 | 36 ft | 17 kts | 304° |
| 2026-04-30 20:45 | 21.04343 | -86.88484 | 37 ft | 15 kts | 304° |
| 2026-04-30 20:45 | 21.04400 | -86.88576 | 39 ft | 15 kts | 303° |
| 2026-04-30 20:46 | 21.04606 | -86.88906 | 42 ft | 14 kts | 303° |
| 2026-04-30 20:46 | 21.04637 | -86.88984 | 42 ft | 8 kts | 261° |
| 2026-04-30 20:47 | 21.04565 | -86.89062 | 41 ft | 10 kts | 211° |
| 2026-04-30 20:47 | 21.04516 | -86.89064 | 41 ft | 4 kts | 142° |
| 2026-04-30 20:48 | 21.04406 | -86.88905 | 40 ft | 31 kts | 122° |
| 2026-04-30 20:48 | 21.04152 | -86.88495 | 35 ft | 100 kts | 123° |
| 2026-04-30 20:48 | 21.03648 | -86.87679 | 75 ft | 153 kts | 123° |
| 2026-04-30 20:48 | 21.03064 | -86.86687 | 573 ft | 163 kts | 123° |
| 2026-04-30 20:49 | 21.02442 | -86.85644 | 1171 ft | 171 kts | 123° |
| 2026-04-30 20:49 | 21.01810 | -86.84566 | 1847 ft | 174 kts | 123° |
| 2026-04-30 20:49 | 21.01177 | -86.83476 | 2421 ft | 181 kts | 123° |
| 2026-04-30 20:50 | 20.99790 | -86.81119 | 3047 ft | 197 kts | 123° |
| 2026-04-30 20:50 | 20.99031 | -86.79827 | 3303 ft | 211 kts | 123° |
| 2026-04-30 20:50 | 20.98400 | -86.78359 | 3545 ft | 226 kts | 98° |
| 2026-04-30 20:50 | 20.98565 | -86.76648 | 3795 ft | 246 kts | 68° |
| 2026-04-30 20:51 | 20.99672 | -86.75152 | 4041 ft | 269 kts | 41° |
| 2026-04-30 20:51 | 21.03285 | -86.73682 | 5022 ft | 286 kts | 6° |
| 2026-04-30 20:51 | 21.05281 | -86.73749 | 5549 ft | 290 kts | 351° |
| 2026-04-30 20:52 | 21.07204 | -86.74390 | 6072 ft | 294 kts | 337° |
| 2026-04-30 20:52 | 21.08996 | -86.75474 | 6616 ft | 297 kts | 326° |
| 2026-04-30 20:52 | 21.12008 | -86.78548 | 7686 ft | 301 kts | 306° |
| 2026-04-30 20:53 | 21.13115 | -86.80449 | 8208 ft | 303 kts | 298° |
| 2026-04-30 20:53 | 21.13966 | -86.82489 | 8695 ft | 305 kts | 285° |
| 2026-04-30 20:53 | 21.14418 | -86.84724 | 9202 ft | 306 kts | 278° |
| 2026-04-30 20:54 | 21.16000 | -86.88916 | 10148 ft | 313 kts | 310° |
| 2026-04-30 20:54 | 21.17661 | -86.90442 | 10667 ft | 314 kts | 330° |
| 2026-04-30 20:54 | 21.19670 | -86.91314 | 11188 ft | 313 kts | 349° |
| 2026-04-30 20:55 | 21.23999 | -86.91269 | 12253 ft | 312 kts | 7° |
| 2026-04-30 20:55 | 21.26156 | -86.91050 | 12652 ft | 319 kts | 6° |
| 2026-04-30 20:55 | 21.28429 | -86.90840 | 12926 ft | 331 kts | 6° |
| 2026-04-30 20:56 | 21.33215 | -86.90433 | 13468 ft | 358 kts | 5° |
| 2026-04-30 20:56 | 21.35763 | -86.90221 | 13748 ft | 370 kts | 5° |
| 2026-04-30 20:56 | 21.40907 | -86.89794 | 14951 ft | 373 kts | 5° |
| 2026-04-30 20:57 | 21.42675 | -86.89648 | 15318 ft | 375 kts | 5° |
| 2026-04-30 20:57 | 21.43848 | -86.89567 | 15566 ft | 376 kts | 3° |
| 2026-04-30 20:57 | 21.46462 | -86.89623 | 16124 ft | 380 kts | 357° |
| 2026-04-30 20:58 | 21.51793 | -86.90125 | 17274 ft | 385 kts | 355° |
| 2026-04-30 20:58 | 21.54464 | -86.90391 | 17824 ft | 388 kts | 355° |
| 2026-04-30 20:58 | 21.57160 | -86.90647 | 18363 ft | 391 kts | 355° |
| 2026-04-30 20:58 | 21.59892 | -86.90897 | 18895 ft | 393 kts | 355° |
| 2026-04-30 20:59 | 21.65403 | -86.91391 | 19916 ft | 400 kts | 355° |
| 2026-04-30 20:59 | 21.68179 | -86.91638 | 20445 ft | 402 kts | 355° |
| 2026-04-30 21:00 | 21.71862 | -86.91967 | 21093 ft | 405 kts | 355° |
| 2026-04-30 21:00 | 21.77504 | -86.92471 | 22041 ft | 410 kts | 355° |
| 2026-04-30 21:01 | 21.83220 | -86.92982 | 22958 ft | 414 kts | 355° |
| 2026-04-30 21:01 | 21.86085 | -86.93237 | 23399 ft | 416 kts | 355° |
| 2026-04-30 21:01 | 21.91909 | -86.93744 | 24281 ft | 421 kts | 355° |
| 2026-04-30 21:02 | 21.94852 | -86.93998 | 24710 ft | 424 kts | 355° |
| 2026-04-30 21:02 | 21.97820 | -86.94254 | 25140 ft | 426 kts | 355° |
| 2026-04-30 21:02 | 22.00764 | -86.94509 | 25563 ft | 428 kts | 355° |
| 2026-04-30 21:02 | 22.03766 | -86.94769 | 25991 ft | 431 kts | 355° |
| 2026-04-30 21:03 | 22.06737 | -86.95026 | 26409 ft | 433 kts | 355° |
| 2026-04-30 21:03 | 22.09766 | -86.95288 | 26830 ft | 436 kts | 355° |
| 2026-04-30 21:03 | 22.12833 | -86.95554 | 27244 ft | 438 kts | 355° |
| 2026-04-30 21:03 | 22.15872 | -86.95818 | 27639 ft | 440 kts | 354° |
| 2026-04-30 21:04 | 22.18932 | -86.96083 | 28027 ft | 443 kts | 354° |
| 2026-04-30 21:04 | 22.22039 | -86.96353 | 28431 ft | 445 kts | 354° |
| 2026-04-30 21:04 | 22.28230 | -86.96892 | 29173 ft | 450 kts | 354° |
| 2026-04-30 21:05 | 22.31387 | -86.97166 | 29533 ft | 453 kts | 354° |
| 2026-04-30 21:05 | 22.34526 | -86.97440 | 29889 ft | 455 kts | 354° |
| 2026-04-30 21:05 | 22.37701 | -86.97716 | 30220 ft | 457 kts | 354° |
| 2026-04-30 21:05 | 22.40891 | -86.97994 | 30577 ft | 458 kts | 354° |
| 2026-04-30 21:06 | 22.44064 | -86.98270 | 30924 ft | 459 kts | 354° |
| 2026-04-30 21:06 | 22.47274 | -86.98549 | 31260 ft | 460 kts | 354° |
| 2026-04-30 21:06 | 22.50444 | -86.98825 | 31616 ft | 461 kts | 354° |
| 2026-04-30 21:06 | 22.53677 | -86.99108 | 31969 ft | 463 kts | 354° |
| 2026-04-30 21:07 | 22.56912 | -86.99391 | 32322 ft | 465 kts | 354° |
| 2026-04-30 21:07 | 22.60112 | -86.99671 | 32675 ft | 466 kts | 354° |
| 2026-04-30 21:07 | 22.63393 | -86.99958 | 33025 ft | 468 kts | 354° |
| 2026-04-30 21:07 | 22.66636 | -87.00241 | 33360 ft | 470 kts | 354° |
| 2026-04-30 21:08 | 22.69901 | -87.00526 | 33689 ft | 471 kts | 354° |
| 2026-04-30 21:08 | 22.73167 | -87.00813 | 33906 ft | 473 kts | 354° |
| 2026-04-30 21:08 | 22.79750 | -87.01388 | 33965 ft | 467 kts | 354° |
| 2026-04-30 21:09 | 22.86150 | -87.01947 | 33969 ft | 458 kts | 354° |
| 2026-04-30 21:09 | 22.92570 | -87.02511 | 33887 ft | 464 kts | 354° |
| 2026-04-30 21:10 | 22.99055 | -87.03082 | 33878 ft | 470 kts | 354° |
| 2026-04-30 21:10 | 23.05447 | -87.04218 | 33891 ft | 464 kts | 339° |
| 2026-04-30 21:11 | 23.11139 | -87.07613 | 33898 ft | 467 kts | 326° |
| 2026-04-30 21:11 | 23.16386 | -87.11746 | 33898 ft | 467 kts | 324° |
| 2026-04-30 21:12 | 23.21588 | -87.15987 | 33899 ft | 465 kts | 324° |
| 2026-04-30 21:12 | 23.26784 | -87.20198 | 33896 ft | 467 kts | 324° |
| 2026-04-30 21:13 | 23.31986 | -87.24394 | 33896 ft | 466 kts | 324° |
| 2026-04-30 21:13 | 23.37185 | -87.28587 | 33896 ft | 466 kts | 324° |
| 2026-04-30 21:14 | 23.42418 | -87.32806 | 33896 ft | 466 kts | 324° |
| 2026-04-30 21:14 | 23.47631 | -87.37014 | 33897 ft | 465 kts | 324° |
| 2026-04-30 21:15 | 23.52836 | -87.41218 | 33897 ft | 466 kts | 324° |
| 2026-04-30 21:15 | 23.58039 | -87.45428 | 33897 ft | 466 kts | 324° |
| 2026-04-30 21:16 | 23.63243 | -87.49643 | 33897 ft | 465 kts | 323° |
| 2026-04-30 21:16 | 23.68428 | -87.53846 | 33897 ft | 466 kts | 323° |
| 2026-04-30 21:17 | 23.73623 | -87.58063 | 33897 ft | 465 kts | 323° |
| 2026-04-30 21:17 | 23.78829 | -87.62308 | 33897 ft | 465 kts | 323° |
| 2026-04-30 21:18 | 23.84009 | -87.66541 | 33898 ft | 465 kts | 323° |
| 2026-04-30 21:18 | 23.89174 | -87.70766 | 33897 ft | 465 kts | 323° |
| 2026-04-30 21:19 | 23.94365 | -87.75015 | 33898 ft | 465 kts | 323° |
| 2026-04-30 21:19 | 23.99554 | -87.79266 | 33898 ft | 465 kts | 323° |
| 2026-04-30 21:20 | 24.04713 | -87.83498 | 33898 ft | 465 kts | 323° |
| 2026-04-30 21:20 | 24.09912 | -87.87767 | 33898 ft | 465 kts | 323° |
| 2026-04-30 21:21 | 24.15097 | -87.92030 | 33898 ft | 465 kts | 323° |
| 2026-04-30 21:22 | 24.22860 | -87.98418 | 33898 ft | 465 kts | 323° |
| 2026-04-30 21:23 | 24.33205 | -88.06948 | 33899 ft | 465 kts | 323° |
| 2026-04-30 21:23 | 24.40958 | -88.13351 | 33897 ft | 465 kts | 323° |
| 2026-04-30 21:24 | 24.46111 | -88.17613 | 33891 ft | 465 kts | 323° |
| 2026-04-30 21:24 | 24.51536 | -88.21468 | 33887 ft | 466 kts | 334° |
| 2026-04-30 21:25 | 24.60699 | -88.25231 | 33887 ft | 468 kts | 340° |
| 2026-04-30 21:26 | 24.69947 | -88.28737 | 33888 ft | 469 kts | 339° |
| 2026-04-30 21:27 | 24.79221 | -88.32330 | 33891 ft | 469 kts | 339° |
| 2026-04-30 21:27 | 24.85375 | -88.34728 | 33895 ft | 470 kts | 339° |
| 2026-04-30 21:28 | 24.94614 | -88.38335 | 33896 ft | 469 kts | 338° |
| 2026-04-30 21:29 | 25.03875 | -88.41954 | 33898 ft | 470 kts | 338° |
| 2026-04-30 21:30 | 25.19316 | -88.48003 | 33901 ft | 469 kts | 338° |
| 2026-04-30 21:31 | 25.34698 | -88.54044 | 33903 ft | 469 kts | 338° |
| 2026-04-30 21:32 | 25.43932 | -88.57680 | 33905 ft | 470 kts | 338° |
| 2026-04-30 21:32 | 25.50088 | -88.60106 | 33906 ft | 470 kts | 338° |
| 2026-04-30 21:33 | 25.59362 | -88.63766 | 33907 ft | 469 kts | 338° |
| 2026-04-30 21:34 | 25.65532 | -88.66205 | 33908 ft | 470 kts | 337° |
| 2026-04-30 21:34 | 25.74760 | -88.69856 | 33909 ft | 469 kts | 337° |
| 2026-04-30 21:35 | 25.80939 | -88.72305 | 33910 ft | 470 kts | 337° |
| 2026-04-30 21:35 | 25.87112 | -88.74755 | 33910 ft | 470 kts | 337° |
| 2026-04-30 21:36 | 25.93275 | -88.77203 | 33911 ft | 470 kts | 337° |
| 2026-04-30 21:37 | 26.05604 | -88.82111 | 33912 ft | 470 kts | 337° |
| 2026-04-30 21:37 | 26.11736 | -88.84552 | 33914 ft | 470 kts | 337° |
| 2026-04-30 21:38 | 26.17915 | -88.87015 | 33914 ft | 470 kts | 336° |
| 2026-04-30 21:38 | 26.24083 | -88.89480 | 33914 ft | 470 kts | 336° |
| 2026-04-30 21:39 | 26.30259 | -88.91950 | 33915 ft | 471 kts | 336° |
| 2026-04-30 21:39 | 26.36404 | -88.94411 | 33915 ft | 470 kts | 336° |
| 2026-04-30 21:40 | 26.42589 | -88.96889 | 33916 ft | 470 kts | 336° |
| 2026-04-30 21:40 | 26.48749 | -88.99361 | 33916 ft | 471 kts | 336° |
| 2026-04-30 21:41 | 26.54917 | -89.01839 | 33916 ft | 471 kts | 336° |
| 2026-04-30 21:41 | 26.61099 | -89.04324 | 33917 ft | 471 kts | 336° |
| 2026-04-30 21:42 | 26.67249 | -89.06800 | 33917 ft | 471 kts | 336° |
| 2026-04-30 21:42 | 26.73425 | -89.09290 | 33917 ft | 471 kts | 336° |
| 2026-04-30 21:43 | 26.79627 | -89.11793 | 33916 ft | 471 kts | 336° |
| 2026-04-30 21:43 | 26.85798 | -89.14286 | 33916 ft | 471 kts | 336° |
| 2026-04-30 21:44 | 26.91607 | -89.17481 | 33916 ft | 462 kts | 320° |
| 2026-04-30 21:44 | 26.96929 | -89.21584 | 33918 ft | 465 kts | 323° |
| 2026-04-30 21:45 | 27.02346 | -89.25497 | 33913 ft | 465 kts | 328° |
| 2026-04-30 21:45 | 27.08445 | -89.28122 | 33917 ft | 473 kts | 337° |
| 2026-04-30 21:46 | 27.14741 | -89.30449 | 33913 ft | 473 kts | 337° |
| 2026-04-30 21:46 | 27.20956 | -89.32742 | 33913 ft | 471 kts | 337° |
| 2026-04-30 21:47 | 27.27224 | -89.35081 | 33913 ft | 473 kts | 337° |
| 2026-04-30 21:47 | 27.33463 | -89.37421 | 33913 ft | 472 kts | 337° |
| 2026-04-30 21:48 | 27.39698 | -89.39765 | 33913 ft | 473 kts | 336° |
| 2026-04-30 21:48 | 27.45966 | -89.42124 | 33913 ft | 473 kts | 336° |
| 2026-04-30 21:49 | 27.52214 | -89.44478 | 33913 ft | 472 kts | 336° |
| 2026-04-30 21:49 | 27.58452 | -89.46831 | 33913 ft | 473 kts | 336° |
| 2026-04-30 21:50 | 27.64685 | -89.49184 | 33912 ft | 472 kts | 336° |
| 2026-04-30 21:50 | 27.70928 | -89.51544 | 33913 ft | 473 kts | 336° |
| 2026-04-30 21:51 | 27.77200 | -89.53919 | 33915 ft | 473 kts | 336° |
| 2026-04-30 21:51 | 27.83443 | -89.56285 | 33916 ft | 473 kts | 336° |
| 2026-04-30 21:52 | 27.89644 | -89.58637 | 33915 ft | 472 kts | 336° |
| 2026-04-30 21:52 | 27.95909 | -89.61018 | 33915 ft | 473 kts | 336° |
| 2026-04-30 21:53 | 28.02154 | -89.63393 | 33915 ft | 473 kts | 336° |
| 2026-04-30 21:53 | 28.08412 | -89.65775 | 33916 ft | 473 kts | 335° |
| 2026-04-30 21:54 | 28.14662 | -89.68159 | 33915 ft | 472 kts | 335° |
| 2026-04-30 21:54 | 28.20915 | -89.70548 | 33914 ft | 472 kts | 335° |
| 2026-04-30 21:55 | 28.27165 | -89.72946 | 33914 ft | 472 kts | 334° |
| 2026-04-30 21:55 | 28.33324 | -89.75482 | 33915 ft | 471 kts | 334° |
| 2026-04-30 21:56 | 28.39373 | -89.78177 | 33915 ft | 463 kts | 324° |
| 2026-04-30 21:56 | 28.44527 | -89.82526 | 33918 ft | 457 kts | 315° |
| 2026-04-30 21:57 | 28.49465 | -89.87058 | 33917 ft | 456 kts | 317° |
| 2026-04-30 21:57 | 28.54517 | -89.91445 | 33917 ft | 458 kts | 318° |
| 2026-04-30 21:58 | 28.59635 | -89.95729 | 33917 ft | 458 kts | 319° |
| 2026-04-30 21:58 | 28.64818 | -89.99971 | 33896 ft | 458 kts | 319° |
| 2026-04-30 21:59 | 28.67430 | -90.02099 | 33497 ft | 463 kts | 319° |
| 2026-04-30 21:59 | 28.70038 | -90.04211 | 32990 ft | 457 kts | 319° |
| 2026-04-30 21:59 | 28.72626 | -90.06305 | 32416 ft | 455 kts | 319° |
| 2026-04-30 22:00 | 28.77866 | -90.10545 | 31265 ft | 468 kts | 320° |
| 2026-04-30 22:00 | 28.83149 | -90.14806 | 30021 ft | 466 kts | 320° |
| 2026-04-30 22:00 | 28.85817 | -90.16959 | 29356 ft | 469 kts | 320° |
| 2026-04-30 22:01 | 28.88498 | -90.19129 | 28720 ft | 477 kts | 320° |
| 2026-04-30 22:01 | 28.91208 | -90.21323 | 28104 ft | 481 kts | 320° |
| 2026-04-30 22:01 | 28.93919 | -90.23517 | 27493 ft | 479 kts | 320° |
| 2026-04-30 22:01 | 28.96618 | -90.25701 | 26883 ft | 473 kts | 320° |
| 2026-04-30 22:02 | 28.99305 | -90.27876 | 26267 ft | 467 kts | 320° |
| 2026-04-30 22:02 | 29.01935 | -90.30008 | 25661 ft | 463 kts | 320° |
| 2026-04-30 22:02 | 29.04569 | -90.32145 | 25054 ft | 460 kts | 320° |
| 2026-04-30 22:02 | 29.07129 | -90.34223 | 24458 ft | 454 kts | 320° |
| 2026-04-30 22:03 | 29.09683 | -90.36298 | 23843 ft | 448 kts | 320° |
| 2026-04-30 22:03 | 29.12233 | -90.38374 | 23236 ft | 444 kts | 320° |
| 2026-04-30 22:03 | 29.14742 | -90.40415 | 22722 ft | 439 kts | 320° |
| 2026-04-30 22:03 | 29.17220 | -90.42436 | 21956 ft | 434 kts | 320° |
| 2026-04-30 22:04 | 29.19676 | -90.44439 | 21332 ft | 430 kts | 320° |
| 2026-04-30 22:04 | 29.22083 | -90.46404 | 20726 ft | 425 kts | 320° |
| 2026-04-30 22:04 | 29.26843 | -90.50295 | 19602 ft | 417 kts | 320° |
| 2026-04-30 22:05 | 29.29198 | -90.52222 | 19034 ft | 413 kts | 320° |
| 2026-04-30 22:05 | 29.31548 | -90.54147 | 18458 ft | 409 kts | 320° |
| 2026-04-30 22:05 | 29.33833 | -90.56022 | 17950 ft | 405 kts | 320° |
| 2026-04-30 22:05 | 29.36111 | -90.57892 | 17446 ft | 404 kts | 320° |
| 2026-04-30 22:06 | 29.38415 | -90.59785 | 16934 ft | 401 kts | 320° |
| 2026-04-30 22:06 | 29.42892 | -90.63464 | 15941 ft | 395 kts | 320° |
| 2026-04-30 22:06 | 29.45115 | -90.65294 | 15459 ft | 392 kts | 319° |
| 2026-04-30 22:07 | 29.47334 | -90.67137 | 14968 ft | 384 kts | 319° |
| 2026-04-30 22:07 | 29.49467 | -90.68903 | 14494 ft | 375 kts | 319° |
| 2026-04-30 22:07 | 29.51559 | -90.70627 | 14036 ft | 368 kts | 319° |
| 2026-04-30 22:07 | 29.53623 | -90.72329 | 13594 ft | 360 kts | 319° |
| 2026-04-30 22:08 | 29.55625 | -90.73980 | 13157 ft | 353 kts | 320° |
| 2026-04-30 22:08 | 29.57625 | -90.75582 | 12718 ft | 347 kts | 321° |
| 2026-04-30 22:08 | 29.59615 | -90.77148 | 12329 ft | 340 kts | 321° |
| 2026-04-30 22:08 | 29.61698 | -90.78359 | 11947 ft | 340 kts | 336° |
| 2026-04-30 22:09 | 29.64037 | -90.78820 | 11580 ft | 342 kts | 353° |
| 2026-04-30 22:09 | 29.66397 | -90.78744 | 11221 ft | 338 kts | 358° |
| 2026-04-30 22:09 | 29.68746 | -90.78573 | 10854 ft | 333 kts | 359° |
| 2026-04-30 22:09 | 29.71052 | -90.78278 | 10487 ft | 330 kts | 6° |
| 2026-04-30 22:10 | 29.73256 | -90.77538 | 10120 ft | 329 kts | 17° |
| 2026-04-30 22:10 | 29.75277 | -90.76314 | 9762 ft | 329 kts | 30° |
| 2026-04-30 22:10 | 29.77116 | -90.74786 | 9434 ft | 325 kts | 32° |
| 2026-04-30 22:10 | 29.78960 | -90.73286 | 9118 ft | 319 kts | 32° |
| 2026-04-30 22:11 | 29.82609 | -90.70452 | 8489 ft | 311 kts | 31° |
| 2026-04-30 22:11 | 29.84383 | -90.69084 | 8173 ft | 307 kts | 31° |
| 2026-04-30 22:11 | 29.86138 | -90.67730 | 7864 ft | 303 kts | 31° |
| 2026-04-30 22:12 | 29.87895 | -90.66415 | 7550 ft | 299 kts | 31° |
| 2026-04-30 22:12 | 29.89661 | -90.65106 | 7232 ft | 296 kts | 31° |
| 2026-04-30 22:12 | 29.91383 | -90.63854 | 6924 ft | 293 kts | 31° |
| 2026-04-30 22:12 | 29.93094 | -90.62565 | 6618 ft | 289 kts | 31° |
| 2026-04-30 22:13 | 29.94766 | -90.61328 | 6344 ft | 284 kts | 30° |
| 2026-04-30 22:13 | 29.96412 | -90.60122 | 6077 ft | 276 kts | 29° |
| 2026-04-30 22:13 | 29.97996 | -90.58942 | 5810 ft | 268 kts | 31° |
| 2026-04-30 22:13 | 29.99553 | -90.57796 | 5536 ft | 261 kts | 32° |
| 2026-04-30 22:14 | 30.01081 | -90.56683 | 5265 ft | 254 kts | 31° |
| 2026-04-30 22:14 | 30.02554 | -90.55616 | 4974 ft | 249 kts | 31° |
| 2026-04-30 22:14 | 30.04004 | -90.54553 | 4659 ft | 244 kts | 30° |
| 2026-04-30 22:14 | 30.05330 | -90.53389 | 4395 ft | 236 kts | 49° |
| 2026-04-30 22:15 | 30.05946 | -90.51704 | 4150 ft | 226 kts | 88° |
| 2026-04-30 22:15 | 30.05622 | -90.50022 | 3879 ft | 214 kts | 125° |
| 2026-04-30 22:15 | 30.04771 | -90.48640 | 3605 ft | 205 kts | 115° |
| 2026-04-30 22:15 | 30.04286 | -90.47122 | 3340 ft | 203 kts | 109° |
| 2026-04-30 22:16 | 30.03863 | -90.45570 | 3056 ft | 201 kts | 108° |
| 2026-04-30 22:16 | 30.03453 | -90.44009 | 2695 ft | 204 kts | 104° |
| 2026-04-30 22:17 | 30.02377 | -90.39606 | 1972 ft | 174 kts | 103° |
| 2026-04-30 22:17 | 30.02103 | -90.38307 | 1710 ft | 164 kts | 105° |
| 2026-04-30 22:17 | 30.01536 | -90.35915 | 1238 ft | 144 kts | 107° |
| 2026-04-30 22:18 | 30.01260 | -90.34813 | 1065 ft | 141 kts | 106° |
| 2026-04-30 22:18 | 30.00733 | -90.32629 | 757 ft | 138 kts | 104° |
| 2026-04-30 22:19 | 30.00204 | -90.30483 | 404 ft | 137 kts | 103° |
| 2026-04-30 22:19 | 29.99955 | -90.29426 | 257 ft | 136 kts | 102° |
| 2026-04-30 22:19 | 29.99452 | -90.27320 | 14 ft | 129 kts | 103° |
| 2026-04-30 22:20 | 29.99255 | -90.26481 | 14 ft | 87 kts | 105° |
| 2026-04-30 22:20 | 29.99071 | -90.25715 | 14 ft | 15 kts | 105° |
| 2026-04-30 22:20 | 29.99115 | -90.25642 | 14 ft | 12 kts | 16° |
| 2026-04-30 22:21 | 29.99152 | -90.25631 | 14 ft | 0 kts | 15° |
| 2026-04-30 22:21 | 29.99153 | -90.25631 | 14 ft | 0 kts | 15° |
| 2026-04-30 22:21 | 29.99166 | -90.25626 | 14 ft | 0 kts | 16° |
| 2026-04-30 22:22 | 29.99177 | -90.25623 | 14 ft | 5 kts | 11° |
| 2026-04-30 22:22 | 29.99215 | -90.25638 | 14 ft | 5 kts | 296° |
| 2026-04-30 22:22 | 29.99221 | -90.25680 | 14 ft | 5 kts | 276° |
| 2026-04-30 22:22 | 29.99226 | -90.25728 | 14 ft | 8 kts | 277° |
| 2026-04-30 22:23 | 29.99252 | -90.25807 | 14 ft | 11 kts | 317° |
| 2026-04-30 22:23 | 29.99318 | -90.25851 | 14 ft | 10 kts | 345° |
| 2026-04-30 22:23 | 29.99359 | -90.25854 | 14 ft | 0 kts | 5° |
| 2026-04-30 22:24 | 29.99368 | -90.25851 | 14 ft | 6 kts | 10° |
| 2026-04-30 22:24 | 29.99428 | -90.25839 | 14 ft | 5 kts | 338° |
| 2026-04-30 22:24 | 29.99459 | -90.25877 | 14 ft | 6 kts | 311° |
| 2026-04-30 22:25 | 29.99495 | -90.25888 | 14 ft | 5 kts | 29° |
| 2026-04-30 22:25 | 29.99519 | -90.25857 | 14 ft | 4 kts | 52° |
| 2026-04-30 22:25 | 29.99529 | -90.25843 | 14 ft | 4 kts | 50° |
| 2026-04-30 22:25 | 29.99535 | -90.25835 | 14 ft | 0 kts | 50° |